LJPZ

Portoroz Airport

Portoroz, Slovenia
TAF LJPZ 180800Z 1809/1818 12005KT CAVOK BECMG 1809/1811 31005KT BECMG 1816/1818 12005KT
Issued Valid From Valid To
Oct-18 @ 08:00 UTC
(4 hours ago)
Oct-18 @ 09:00 UTC
(3 hours ago)
Oct-18 @ 18:00 UTC
(in 6 hours)
Oct-18 @ 09:00 to Oct-18 @ 18:00
TAF LJPZ 180800Z 1809/1818 12005KT CAVOK
Wind Visibility Clouds Conditions
120° at 5 knots 10,000+ meters
  • No significant clouds
Becoming Oct-18 @ 09:00 to Oct-18 @ 16:00
BECMG 1809/1811 31005KT
Wind Visibility Clouds Conditions
310° at 5 knots 10,000+ meters
  • No significant clouds
Becoming Oct-18 @ 16:00 to Oct-18 @ 18:00
BECMG 1816/1818 12005KT
Wind Visibility Clouds Conditions
120° at 5 knots 10,000+ meters
  • No significant clouds
TAF LJPZ 180800Z 1809/1818 12005KT CAVOK BECMG 1809/1811 31005KT BECMG 1816/1818 12005KT
Issued Oct-18 @ 08:00 UTC
(4 hours ago)
Valid From Oct-18 @ 09:00 UTC
(3 hours ago)
Valid To Oct-18 @ 18:00 UTC
(in 6 hours)
Oct-18 @ 09:00 - Oct-18 @ 18:00
Wind Visibility
120° at 5 knots 10,000+ meters
Clouds
  • No significant clouds
Conditions
Becoming Oct-18 @ 09:00 - Oct-18 @ 16:00
Wind Visibility
310° at 5 knots 10,000+ meters
Clouds
  • No significant clouds
Conditions
Becoming Oct-18 @ 16:00 - Oct-18 @ 18:00
Wind Visibility
120° at 5 knots 10,000+ meters
Clouds
  • No significant clouds
Conditions